Time;durP1;ratioP1;P1;durP2;ratioP2;P2;SDS_P1;SDS_P2;PMS_P1;PMS_P2;Temp;Humidity;BMP_temperature;BMP_pressure;BME280_temperature;BME280_humidity;BME280_pressure;Samples;Min_cycle;Max_cycle;Signal;HPM_P1;HPM_P2
2023/10/18 00:01:00;;;;;;;12.93;9.90;;;12.10;56.50;;;;;;4902820;29;20478;-48
2023/10/18 00:03:30;;;;;;;11.23;9.43;;;12.00;57.10;;;;;;4902747;29;22351;-51
2023/10/18 00:06:00;;;;;;;10.47;9.33;;;12.10;57.20;;;;;;4903894;29;20537;-53
2023/10/18 00:08:26;;;;;;;10.53;9.43;;;12.10;56.90;;;;;;4904439;29;20457;-52
2023/10/18 00:10:53;;;;;;;11.20;10.00;;;12.20;56.60;;;;;;4906978;29;20440;-50
2023/10/18 00:13:22;;;;;;;11.80;9.50;;;12.20;56.30;;;;;;4900646;29;20461;-51
2023/10/18 00:15:52;;;;;;;11.27;10.10;;;12.20;56.00;;;;;;4902497;29;20461;-48
2023/10/18 00:18:18;;;;;;;16.20;9.70;;;12.20;55.90;;;;;;4903154;29;20614;-50
2023/10/18 00:20:44;;;;;;;11.80;10.50;;;12.10;56.00;;;;;;4900005;29;20536;-47
2023/10/18 00:23:10;;;;;;;10.53;9.40;;;12.20;56.10;;;;;;4901221;29;20441;-49
2023/10/18 00:25:36;;;;;;;10.43;9.33;;;12.10;56.10;;;;;;4904919;29;20625;-49
2023/10/18 00:28:03;;;;;;;13.70;9.77;;;12.10;56.20;;;;;;4905047;29;20216;-49
2023/10/18 00:30:30;;;;;;;11.53;9.87;;;12.10;56.10;;;;;;4901575;29;20805;-48
2023/10/18 00:32:56;;;;;;;11.93;10.50;;;12.20;56.10;;;;;;4906520;29;20450;-50
2023/10/18 00:35:31;;;;;;;11.70;9.63;;;12.20;56.00;;;;;;4902528;29;20965;-49
2023/10/18 00:37:57;;;;;;;11.73;9.90;;;12.20;56.00;;;;;;4901882;29;20220;-52
2023/10/18 00:45:47;;;;;;;12.97;10.80;;;12.20;55.90;;;;;;4897357;29;20973;-51
2023/10/18 00:48:14;;;;;;;13.43;10.40;;;12.00;56.20;;;;;;4905991;29;20473;-48
2023/10/18 00:50:43;;;;;;;11.70;10.50;;;11.50;57.50;;;;;;4897764;29;20596;-50
2023/10/18 00:53:10;;;;;;;11.40;10.27;;;11.40;58.20;;;;;;4908837;29;20841;-50
2023/10/18 00:55:37;;;;;;;12.70;10.57;;;11.50;58.00;;;;;;4906494;29;21042;-51
2023/10/18 00:58:11;;;;;;;15.47;10.90;;;11.70;57.60;;;;;;4900429;29;21052;-48
2023/10/18 01:00:40;;;;;;;13.83;10.00;;;11.80;57.20;;;;;;4906804;29;20509;-46
2023/10/18 01:03:09;;;;;;;13.57;11.60;;;11.70;57.30;;;;;;4907362;29;20837;-50
2023/10/18 01:05:35;;;;;;;11.57;10.37;;;11.80;57.30;;;;;;4901991;29;20464;-52
2023/10/18 01:08:06;;;;;;;14.30;10.50;;;11.90;56.90;;;;;;4902288;29;20560;-50
2023/10/18 01:10:33;;;;;;;14.07;9.83;;;11.80;56.60;;;;;;4903509;29;20446;-49
2023/10/18 01:13:00;;;;;;;11.80;9.50;;;11.90;56.60;;;;;;4900456;29;20478;-48
2023/10/18 01:15:28;;;;;;;11.40;9.70;;;11.90;56.50;;;;;;4901974;29;20509;-48
2023/10/18 01:17:54;;;;;;;12.23;9.47;;;11.90;56.30;;;;;;4904251;29;20501;-49
2023/10/18 01:20:41;;;;;;;11.43;9.43;;;11.80;55.90;;;;;;4905977;29;20512;-48
2023/10/18 01:23:07;;;;;;;11.57;9.20;;;11.80;55.90;;;;;;4910467;29;20445;-49
2023/10/18 01:25:34;;;;;;;11.13;9.97;;;11.70;56.50;;;;;;4902789;29;20512;-54
2023/10/18 01:28:00;;;;;;;11.10;9.90;;;11.60;56.80;;;;;;4898903;29;20980;-49
2023/10/18 01:30:26;;;;;;;11.17;9.40;;;11.70;56.80;;;;;;4901453;29;20442;-51
2023/10/18 01:32:52;;;;;;;13.03;9.40;;;11.60;56.70;;;;;;4904440;29;20445;-48
2023/10/18 01:35:17;;;;;;;11.87;10.67;;;11.60;56.60;;;;;;4900765;29;20285;-48
2023/10/18 01:37:43;;;;;;;10.37;9.37;;;11.60;56.60;;;;;;4906219;29;20288;-50
2023/10/18 01:42:56;;;;;;;11.20;9.40;;;11.60;56.70;;;;;;4906506;29;20189;-51
2023/10/18 01:45:22;;;;;;;10.33;9.20;;;11.60;56.60;;;;;;4906355;29;20441;-50
2023/10/18 01:47:49;;;;;;;10.20;9.10;;;11.60;56.50;;;;;;4905174;29;20464;-54
2023/10/18 01:50:15;;;;;;;11.23;9.03;;;11.60;56.50;;;;;;4901920;29;20600;-47
2023/10/18 01:52:42;;;;;;;14.00;9.30;;;11.70;56.50;;;;;;4908470;29;20442;-47
2023/10/18 01:55:12;;;;;;;12.60;9.40;;;11.70;56.40;;;;;;4907951;29;20953;-46
2023/10/18 01:57:43;;;;;;;13.40;9.57;;;11.70;56.20;;;;;;4911798;29;20485;-46
2023/10/18 02:00:15;;;;;;;14.17;10.33;;;11.70;56.10;;;;;;4905071;29;20437;-50
2023/10/18 02:02:41;;;;;;;10.40;9.30;;;11.60;55.90;;;;;;4908075;29;20973;-47
2023/10/18 02:05:08;;;;;;;11.27;9.30;;;11.60;56.00;;;;;;4907948;29;20471;-47
2023/10/18 02:07:35;;;;;;;11.70;8.93;;;11.60;56.00;;;;;;4904737;29;20237;-48
2023/10/18 02:10:01;;;;;;;10.90;9.77;;;11.60;56.00;;;;;;4911666;29;21008;-46
2023/10/18 02:12:29;;;;;;;12.83;9.70;;;11.50;55.80;;;;;;4912757;29;20528;-48
2023/10/18 02:14:59;;;;;;;10.17;9.17;;;11.50;55.80;;;;;;4911601;29;20449;-49
2023/10/18 02:17:27;;;;;;;10.60;9.50;;;11.50;55.80;;;;;;4912510;29;20519;-49
2023/10/18 02:19:53;;;;;;;12.17;9.90;;;11.50;55.70;;;;;;4912708;29;20457;-47
2023/10/18 02:22:19;;;;;;;15.47;10.10;;;11.40;55.60;;;;;;4905307;29;20507;-49
2023/10/18 02:24:45;;;;;;;14.80;10.60;;;11.40;55.50;;;;;;4911648;29;20899;-48
2023/10/18 02:27:15;;;;;;;13.53;10.00;;;11.40;55.60;;;;;;4907097;29;20181;-49
2023/10/18 02:29:44;;;;;;;11.13;10.03;;;11.30;55.80;;;;;;4908977;29;21425;-47
2023/10/18 02:34:54;;;;;;;12.03;9.60;;;11.30;56.00;;;;;;4908133;29;20554;-48
2023/10/18 02:37:19;;;;;;;12.10;9.43;;;11.20;55.90;;;;;;4903153;29;21004;-47
2023/10/18 02:39:46;;;;;;;11.70;8.70;;;11.20;56.10;;;;;;4905534;28;20218;-50
2023/10/18 02:42:18;;;;;;;10.90;9.40;;;11.20;56.10;;;;;;4903506;29;20216;-49
2023/10/18 02:44:44;;;;;;;10.50;9.07;;;11.30;56.10;;;;;;4904998;29;20437;-47
2023/10/18 02:47:16;;;;;;;15.80;10.03;;;11.30;56.10;;;;;;4905632;29;20449;-48
2023/10/18 02:49:51;;;;;;;11.20;10.10;;;11.30;56.20;;;;;;4911476;29;20980;-49
2023/10/18 02:52:20;;;;;;;10.87;8.97;;;11.20;56.10;;;;;;4905507;29;20488;-50
2023/10/18 02:54:48;;;;;;;9.83;8.83;;;11.20;56.00;;;;;;4907032;29;20461;-51
2023/10/18 02:57:14;;;;;;;9.70;8.70;;;11.20;55.80;;;;;;4902731;29;20489;-52
2023/10/18 02:59:42;;;;;;;12.77;10.20;;;11.20;55.60;;;;;;4906311;29;20473;-51
2023/10/18 03:02:14;;;;;;;10.13;9.00;;;11.20;55.50;;;;;;4907230;29;20214;-52
2023/10/18 03:04:42;;;;;;;10.70;9.60;;;11.20;55.60;;;;;;4899435;29;20453;-53
2023/10/18 03:07:10;;;;;;;12.03;10.10;;;11.10;55.70;;;;;;4903330;29;20445;-54
2023/10/18 03:12:13;;;;;;;11.87;10.20;;;11.10;56.00;;;;;;4907473;29;20784;-53
2023/10/18 03:14:53;;;;;;;13.97;11.50;;;11.10;56.00;;;;;;4905438;29;20191;-50
2023/10/18 03:17:23;;;;;;;11.50;10.10;;;11.10;56.00;;;;;;4904975;29;20539;-48
2023/10/18 03:19:50;;;;;;;10.90;9.00;;;11.00;56.10;;;;;;4907182;29;20466;-47
2023/10/18 03:22:20;;;;;;;10.07;9.07;;;10.90;56.80;;;;;;4908271;29;20527;-50
2023/10/18 03:24:55;;;;;;;11.70;10.10;;;10.80;56.80;;;;;;4910444;29;20453;-49
2023/10/18 03:27:29;;;;;;;13.00;9.70;;;10.90;56.70;;;;;;4909232;29;20449;-49
2023/10/18 03:29:58;;;;;;;9.57;8.40;;;10.90;56.50;;;;;;4907606;29;20460;-48
2023/10/18 03:32:24;;;;;;;10.27;9.27;;;10.90;56.30;;;;;;4907920;29;20433;-48
2023/10/18 03:34:53;;;;;;;12.70;9.87;;;10.90;56.10;;;;;;4906904;29;20444;-50
2023/10/18 03:37:24;;;;;;;11.23;8.67;;;11.00;56.20;;;;;;4904152;29;20860;-49
2023/10/18 03:39:53;;;;;;;16.20;10.60;;;11.00;56.20;;;;;;4913875;29;20499;-51
2023/10/18 03:42:31;;;;;;;11.60;10.40;;;10.90;56.30;;;;;;4911852;29;20676;-46
2023/10/18 03:44:58;;;;;;;12.37;10.60;;;10.90;56.70;;;;;;4905760;29;20532;-51
2023/10/18 03:47:28;;;;;;;14.27;10.50;;;10.90;56.80;;;;;;4910355;29;20444;-49
2023/10/18 03:49:55;;;;;;;11.03;9.67;;;10.90;56.90;;;;;;4908294;29;20559;-48
2023/10/18 03:52:21;;;;;;;11.33;9.97;;;10.90;56.90;;;;;;4909911;29;20441;-52
2023/10/18 03:57:28;;;;;;;12.03;10.17;;;11.00;56.50;;;;;;4902263;29;20476;-48
2023/10/18 04:00:09;;;;;;;13.00;9.90;;;10.90;55.90;;;;;;4908185;29;20860;-48
2023/10/18 04:02:34;;;;;;;11.30;10.10;;;10.90;56.40;;;;;;4909132;29;20544;-50
2023/10/18 04:05:10;;;;;;;13.77;9.93;;;10.90;56.40;;;;;;4909654;29;20533;-53
2023/10/18 04:07:36;;;;;;;13.87;10.03;;;10.90;56.40;;;;;;4904479;29;20193;-51
2023/10/18 04:10:12;;;;;;;13.50;9.10;;;10.90;56.10;;;;;;4900408;29;21056;-50
2023/10/18 04:12:40;;;;;;;11.17;9.83;;;10.80;56.00;;;;;;4910211;29;20200;-50
2023/10/18 04:15:21;;;;;;;14.07;10.77;;;10.80;56.30;;;;;;4907380;29;20539;-51
2023/10/18 04:18:02;;;;;;;14.23;10.70;;;10.60;56.40;;;;;;4908452;29;20480;-50
2023/10/18 04:20:31;;;;;;;13.53;10.73;;;10.50;57.20;;;;;;4911282;29;20449;-47
2023/10/18 04:22:57;;;;;;;14.17;11.43;;;10.50;57.30;;;;;;4912644;29;20469;-50
2023/10/18 04:25:31;;;;;;;13.87;11.20;;;10.60;57.30;;;;;;4908418;29;21073;-53
2023/10/18 04:27:58;;;;;;;13.30;11.17;;;10.60;57.30;;;;;;4909110;29;20189;-51
2023/10/18 04:30:30;;;;;;;13.00;10.73;;;10.60;57.20;;;;;;4904650;29;21280;-48
2023/10/18 04:35:44;;;;;;;14.20;11.33;;;10.40;58.40;;;;;;4907019;29;20472;-50
2023/10/18 04:38:21;;;;;;;16.70;12.60;;;10.40;58.80;;;;;;4902490;29;20588;-49
2023/10/18 04:43:27;;;;;;;15.27;11.03;;;10.10;59.90;;;;;;4906887;29;20516;-49
2023/10/18 04:46:15;;;;;;;14.20;12.70;;;9.80;61.50;;;;;;4906616;29;20465;-49
2023/10/18 04:51:27;;;;;;;15.23;12.37;;;9.50;63.70;;;;;;4908741;29;20458;-47
2023/10/18 04:54:10;;;;;;;15.53;11.93;;;9.70;63.00;;;;;;4907499;29;20461;-49
2023/10/18 04:56:39;;;;;;;18.60;12.03;;;9.90;62.50;;;;;;4906684;29;20535;-46
2023/10/18 05:04:32;;;;;;;14.97;11.53;;;10.50;59.60;;;;;;4903781;29;20452;-51
2023/10/18 05:07:21;;;;;;;14.93;13.33;;;10.70;59.00;;;;;;4905638;29;20453;-48
2023/10/18 05:09:55;;;;;;;14.47;11.23;;;10.40;58.80;;;;;;4907328;29;20460;-48
2023/10/18 05:14:53;;;;;;;14.90;12.43;;;10.70;61.80;;;;;;4910907;29;20521;-50
2023/10/18 05:18:04;;;;;;;13.03;10.30;;;11.10;61.70;;;;;;4909829;29;20572;-51
2023/10/18 05:22:45;;;;;;;17.33;14.20;;;11.70;59.50;;;;;;4905331;29;21134;-50
2023/10/18 05:27:59;;;;;;;21.00;16.57;;;11.90;56.60;;;;;;4908015;29;20456;-51
2023/10/18 05:33:16;;;;;;;14.67;11.63;;;11.80;55.70;;;;;;4905894;29;20956;-49
2023/10/18 05:35:45;;;;;;;17.20;11.90;;;11.70;55.30;;;;;;4904168;29;20492;-49
2023/10/18 05:43:12;;;;;;;13.97;10.80;;;11.60;55.10;;;;;;4912558;29;20519;-49
2023/10/18 05:45:40;;;;;;;13.90;12.17;;;11.60;55.60;;;;;;4915995;29;20196;-53
2023/10/18 05:48:13;;;;;;;14.23;11.60;;;11.60;57.60;;;;;;4916924;29;20556;-48
2023/10/18 05:50:45;;;;;;;15.60;10.73;;;11.70;56.90;;;;;;4912767;29;20873;-50
2023/10/18 05:53:12;;;;;;;13.90;11.77;;;11.90;56.50;;;;;;4916655;29;20460;-52
2023/10/18 05:55:40;;;;;;;14.07;12.27;;;12.10;56.10;;;;;;4911283;29;20973;-49
2023/10/18 05:58:06;;;;;;;12.80;11.13;;;12.30;55.60;;;;;;4914744;29;20507;-49
2023/10/18 06:00:36;;;;;;;15.80;12.83;;;12.40;54.90;;;;;;4911107;29;20460;-50
2023/10/18 06:03:02;;;;;;;14.40;12.63;;;12.40;54.50;;;;;;4904744;29;20257;-52
2023/10/18 06:05:33;;;;;;;18.30;12.67;;;12.30;53.70;;;;;;4916968;29;20457;-49
2023/10/18 06:07:59;;;;;;;15.80;12.20;;;12.20;53.70;;;;;;4918033;29;20193;-49
2023/10/18 06:10:26;;;;;;;14.67;11.80;;;12.10;53.80;;;;;;4911116;29;20880;-54
2023/10/18 06:13:05;;;;;;;16.30;11.80;;;12.10;54.20;;;;;;4918406;29;20877;-50
2023/10/18 06:15:34;;;;;;;12.77;11.30;;;12.10;54.10;;;;;;4911855;29;20559;-50
2023/10/18 06:18:00;;;;;;;16.23;12.40;;;12.10;54.00;;;;;;4912428;29;21339;-50
2023/10/18 06:23:07;;;;;;;15.70;12.50;;;12.10;53.80;;;;;;4911774;29;20500;-49
2023/10/18 06:25:37;;;;;;;13.43;11.23;;;12.00;53.90;;;;;;4909084;29;20738;-54
2023/10/18 06:28:09;;;;;;;18.43;12.20;;;11.90;54.10;;;;;;4914878;29;20511;-49
2023/10/18 06:30:41;;;;;;;15.10;12.10;;;11.90;54.40;;;;;;4910480;29;20453;-51
2023/10/18 06:33:12;;;;;;;14.73;12.50;;;11.80;54.60;;;;;;4910111;29;20484;-53
2023/10/18 06:35:45;;;;;;;13.93;12.43;;;11.70;54.90;;;;;;4913153;29;20457;-49
2023/10/18 06:38:17;;;;;;;13.60;11.67;;;11.70;55.10;;;;;;4908726;29;20500;-47
2023/10/18 06:40:44;;;;;;;14.67;12.07;;;11.70;55.20;;;;;;4914875;29;20445;-48
2023/10/18 06:43:09;;;;;;;14.57;12.90;;;11.70;55.30;;;;;;4916859;29;20472;-48
2023/10/18 06:45:39;;;;;;;15.07;12.97;;;11.70;55.40;;;;;;4912069;29;20446;-49
2023/10/18 06:48:08;;;;;;;15.27;12.70;;;11.60;55.40;;;;;;4917787;29;20282;-50
2023/10/18 06:50:34;;;;;;;16.97;14.23;;;11.60;55.50;;;;;;4915765;29;20445;-49
2023/10/18 06:53:05;;;;;;;22.43;16.83;;;11.60;55.60;;;;;;4921307;29;20464;-49
2023/10/18 06:55:44;;;;;;;20.13;13.93;;;11.70;55.70;;;;;;4910205;29;20433;-49
2023/10/18 06:58:15;;;;;;;17.10;13.63;;;11.70;55.80;;;;;;4917330;29;20857;-47
2023/10/18 07:00:46;;;;;;;19.83;14.60;;;11.60;56.10;;;;;;4920758;29;20449;-50
2023/10/18 07:03:18;;;;;;;19.20;14.40;;;11.60;56.30;;;;;;4919311;29;20460;-51
2023/10/18 07:05:49;;;;;;;17.10;13.57;;;11.70;56.20;;;;;;4915872;29;20445;-50
2023/10/18 07:08:40;;;;;;;16.67;14.40;;;11.80;56.30;;;;;;4917092;29;20845;-47
2023/10/18 07:11:01;;;;;;;17.40;13.60;;;11.80;56.60;;;;;;4915997;29;20618;-48
2023/10/18 07:13:33;;;;;;;21.30;14.90;;;11.60;56.80;;;;;;4913458;29;20473;-48
2023/10/18 07:16:01;;;;;;;16.17;13.57;;;11.50;57.20;;;;;;4918659;29;20465;-49
2023/10/18 07:18:27;;;;;;;18.83;14.27;;;11.60;57.70;;;;;;4915457;29;20504;-50
2023/10/18 07:20:59;;;;;;;16.07;14.13;;;11.70;57.60;;;;;;4907890;29;20855;-48
2023/10/18 07:23:26;;;;;;;16.63;13.60;;;11.50;58.60;;;;;;4917201;29;20460;-47
2023/10/18 07:25:52;;;;;;;19.47;15.10;;;11.70;58.40;;;;;;4913897;29;20473;-48
2023/10/18 07:28:21;;;;;;;16.57;14.40;;;11.70;58.30;;;;;;4920014;29;21000;-49
2023/10/18 07:30:47;;;;;;;16.10;13.93;;;11.80;58.50;;;;;;4914185;29;20196;-51
2023/10/18 07:33:15;;;;;;;18.80;15.00;;;11.80;58.10;;;;;;4918419;29;20441;-48
2023/10/18 07:35:44;;;;;;;16.30;14.20;;;11.70;58.40;;;;;;4914313;29;20457;-46
2023/10/18 07:38:09;;;;;;;17.20;15.00;;;11.80;58.50;;;;;;4914074;29;20500;-48
2023/10/18 07:40:40;;;;;;;17.50;15.57;;;11.90;58.60;;;;;;4914271;29;20445;-48
2023/10/18 07:43:12;;;;;;;18.13;15.57;;;11.40;58.80;;;;;;4917377;29;20185;-47
2023/10/18 07:45:39;;;;;;;19.40;15.63;;;11.10;60.70;;;;;;4913430;29;20438;-49
2023/10/18 07:48:05;;;;;;;17.53;15.60;;;11.00;61.20;;;;;;4918514;29;20814;-48
2023/10/18 07:53:06;;;;;;;20.27;15.60;;;11.10;61.50;;;;;;4917881;29;20670;-49
2023/10/18 07:55:41;;;;;;;16.23;14.43;;;11.00;61.80;;;;;;4914216;29;20453;-47
2023/10/18 07:58:23;;;;;;;17.87;14.33;;;11.10;61.90;;;;;;4915514;29;20480;-49
2023/10/18 08:03:31;;;;;;;20.00;15.43;;;10.60;63.40;;;;;;4907917;29;20516;-49
2023/10/18 08:05:59;;;;;;;21.40;15.23;;;10.60;63.50;;;;;;4911627;29;20442;-48
2023/10/18 08:08:25;;;;;;;18.53;16.37;;;10.50;64.10;;;;;;4918086;29;20520;-47
2023/10/18 08:10:54;;;;;;;16.60;14.83;;;10.70;63.90;;;;;;4912612;29;20465;-50
2023/10/18 08:13:26;;;;;;;19.73;16.13;;;10.80;63.70;;;;;;4917138;29;20527;-47
2023/10/18 08:15:56;;;;;;;17.30;15.20;;;11.10;63.60;;;;;;4915343;29;20465;-48
2023/10/18 08:18:42;;;;;;;16.80;15.00;;;11.40;62.90;;;;;;4912077;29;20497;-47
2023/10/18 08:21:08;;;;;;;16.13;14.43;;;11.60;61.50;;;;;;4913656;29;20533;-49
2023/10/18 08:23:35;;;;;;;18.90;14.30;;;11.90;61.50;;;;;;4913352;29;20641;-49
2023/10/18 08:26:04;;;;;;;17.77;14.10;;;11.90;60.50;;;;;;4915748;29;20458;-49
2023/10/18 08:28:39;;;;;;;15.90;14.10;;;12.10;60.40;;;;;;4915115;29;20461;-48
2023/10/18 08:31:32;;;;;;;19.60;16.70;;;12.30;59.50;;;;;;4914371;29;20456;-49
2023/10/18 08:34:10;;;;;;;16.00;14.30;;;12.50;58.60;;;;;;4914649;29;20794;-51
2023/10/18 08:36:36;;;;;;;19.07;16.30;;;12.50;58.90;;;;;;4907030;29;20972;-49
2023/10/18 08:39:02;;;;;;;18.07;15.07;;;12.40;58.70;;;;;;4916033;29;20461;-47
2023/10/18 08:41:33;;;;;;;17.40;15.43;;;12.40;58.80;;;;;;4915500;29;20185;-50
2023/10/18 08:44:15;;;;;;;16.60;14.20;;;12.50;58.90;;;;;;4914311;29;20795;-49
2023/10/18 08:46:43;;;;;;;15.67;13.90;;;12.40;58.30;;;;;;4909498;29;20524;-49
2023/10/18 08:49:12;;;;;;;16.43;12.30;;;12.20;58.20;;;;;;4916022;29;20481;-54
2023/10/18 08:51:44;;;;;;;15.10;12.63;;;12.40;58.80;;;;;;4920682;29;20433;-50
2023/10/18 08:54:17;;;;;;;17.13;13.30;;;12.60;58.40;;;;;;4916558;29;20949;-49
2023/10/18 08:56:47;;;;;;;15.60;13.20;;;13.00;57.70;;;;;;4911268;29;20989;-51
2023/10/18 08:59:18;;;;;;;12.80;11.50;;;13.30;56.90;;;;;;4905841;29;20473;-51
2023/10/18 09:04:52;;;;;;;13.63;11.90;;;13.20;56.50;;;;;;4909879;29;20460;-50
2023/10/18 09:07:21;;;;;;;14.17;11.60;;;13.50;56.00;;;;;;4912421;29;20588;-47
2023/10/18 09:09:57;;;;;;;15.67;12.83;;;13.80;55.50;;;;;;4913473;29;20476;-49
2023/10/18 09:13:29;;;;;;;14.00;12.63;;;14.20;54.80;;;;;;4911602;29;20820;-48
2023/10/18 09:15:29;;;;;;;13.50;12.20;;;14.20;54.50;;;;;;4913707;29;20461;-49
2023/10/18 09:18:03;;;;;;;18.70;12.70;;;14.30;54.50;;;;;;4915764;29;20519;-46
2023/10/18 09:20:29;;;;;;;12.30;11.10;;;14.40;54.40;;;;;;4921865;29;21099;-51
2023/10/18 09:23:01;;;;;;;12.47;11.17;;;14.60;53.80;;;;;;4915599;29;20899;-48
2023/10/18 09:25:27;;;;;;;15.50;12.27;;;14.80;53.50;;;;;;4917775;29;20539;-49
2023/10/18 09:28:10;;;;;;;14.80;11.73;;;15.00;52.40;;;;;;4912595;29;20461;-49
2023/10/18 09:30:36;;;;;;;13.63;12.20;;;15.10;51.90;;;;;;4910037;29;20440;-51
2023/10/18 09:33:02;;;;;;;11.67;10.23;;;14.90;52.30;;;;;;4914409;29;20441;-49
2023/10/18 09:35:29;;;;;;;13.00;11.17;;;15.10;52.60;;;;;;4912225;29;20481;-52
2023/10/18 09:38:03;;;;;;;12.00;10.40;;;15.40;52.00;;;;;;4910403;29;20477;-50
2023/10/18 09:40:29;;;;;;;13.17;10.70;;;15.80;51.30;;;;;;4906131;29;21000;-54
2023/10/18 09:42:55;;;;;;;12.03;10.80;;;16.10;51.00;;;;;;4910883;29;20536;-49
2023/10/18 09:45:20;;;;;;;11.53;10.37;;;16.20;50.20;;;;;;4911387;29;20445;-53
2023/10/18 09:47:49;;;;;;;11.03;9.50;;;16.40;50.10;;;;;;4908600;29;20192;-49
2023/10/18 09:50:23;;;;;;;11.37;10.17;;;16.70;49.50;;;;;;4911116;29;20846;-50
2023/10/18 09:52:56;;;;;;;10.83;9.73;;;16.90;48.80;;;;;;4915789;29;20472;-51
2023/10/18 09:55:28;;;;;;;10.90;9.90;;;17.10;48.20;;;;;;4911894;29;20458;-49
2023/10/18 09:58:02;;;;;;;10.57;9.47;;;17.30;48.00;;;;;;4909761;29;20481;-48
2023/10/18 10:00:42;;;;;;;10.73;9.63;;;17.30;47.40;;;;;;4907837;29;20437;-47
2023/10/18 10:03:12;;;;;;;11.20;10.00;;;17.50;47.70;;;;;;4916794;29;20445;-49
2023/10/18 10:05:42;;;;;;;11.30;10.17;;;17.80;47.30;;;;;;4909726;29;20444;-47
2023/10/18 10:08:09;;;;;;;10.47;9.37;;;17.90;47.10;;;;;;4911876;29;20858;-48
2023/10/18 10:10:49;;;;;;;12.23;9.87;;;18.00;46.60;;;;;;4910496;29;20461;-48
2023/10/18 10:13:18;;;;;;;11.40;9.70;;;18.10;46.10;;;;;;4915667;29;20447;-47
2023/10/18 10:16:08;;;;;;;9.80;8.80;;;18.10;46.00;;;;;;4906793;29;21143;-49
2023/10/18 10:18:37;;;;;;;9.50;8.60;;;18.30;45.60;;;;;;4910543;29;20543;-48
2023/10/18 10:21:08;;;;;;;9.50;8.60;;;18.30;46.50;;;;;;4910563;29;20468;-48
2023/10/18 10:23:35;;;;;;;8.60;7.80;;;18.30;45.50;;;;;;4911146;29;20536;-48
2023/10/18 10:26:12;;;;;;;9.70;8.23;;;18.00;46.20;;;;;;4919876;29;20455;-48
2023/10/18 10:31:56;;;;;;;8.33;7.57;;;18.10;45.70;;;;;;4921628;29;20483;-49
2023/10/18 10:34:26;;;;;;;8.80;8.00;;;18.20;45.30;;;;;;4918346;29;20508;-48
2023/10/18 10:37:03;;;;;;;8.73;7.70;;;18.10;45.70;;;;;;4917751;29;20488;-46
2023/10/18 10:39:32;;;;;;;8.57;7.73;;;18.00;45.20;;;;;;4916463;29;20547;-49
2023/10/18 10:45:23;;;;;;;9.37;8.47;;;18.10;46.30;;;;;;4916080;29;20463;-50
2023/10/18 10:47:55;;;;;;;9.47;7.63;;;18.30;45.70;;;;;;4917372;29;20519;-49
2023/10/18 10:50:43;;;;;;;8.00;7.23;;;18.40;45.30;;;;;;4920574;29;20520;-49
2023/10/18 10:53:15;;;;;;;8.70;7.80;;;18.50;45.00;;;;;;4913532;29;20880;-46
2023/10/18 10:55:43;;;;;;;8.00;7.20;;;18.80;44.40;;;;;;4917792;29;20437;-48
2023/10/18 10:58:17;;;;;;;7.43;6.73;;;18.90;44.10;;;;;;4918196;29;20560;-49
2023/10/18 11:01:29;;;;;;;6.57;6.03;;;18.80;43.20;;;;;;4916247;29;20515;-48
2023/10/18 11:03:55;;;;;;;6.50;5.90;;;18.80;43.90;;;;;;4898516;29;20471;-48
2023/10/18 11:06:23;;;;;;;8.47;6.00;;;19.00;42.70;;;;;;4917861;29;21062;-48
2023/10/18 11:08:50;;;;;;;6.93;6.23;;;19.00;42.70;;;;;;4917946;29;20849;-50
2023/10/18 11:11:17;;;;;;;6.40;5.77;;;19.20;42.10;;;;;;4920703;29;20868;-51
2023/10/18 11:13:45;;;;;;;7.13;5.60;;;19.40;42.20;;;;;;4917905;29;20988;-49
2023/10/18 11:16:11;;;;;;;6.00;5.03;;;19.60;41.50;;;;;;4916004;29;20483;-48
2023/10/18 11:18:42;;;;;;;5.57;4.97;;;19.60;40.70;;;;;;4916905;29;20492;-47
2023/10/18 11:24:04;;;;;;;7.77;5.90;;;20.00;40.70;;;;;;4914504;29;20536;-51
2023/10/18 11:26:40;;;;;;;5.97;5.47;;;20.00;40.30;;;;;;4915665;29;20441;-47
2023/10/18 11:29:06;;;;;;;5.93;5.43;;;20.20;40.70;;;;;;4921776;29;20963;-50
2023/10/18 11:31:33;;;;;;;5.60;5.10;;;20.60;39.80;;;;;;4913533;29;20455;-49
2023/10/18 11:34:07;;;;;;;5.70;5.00;;;20.80;40.00;;;;;;4916857;29;20185;-53
2023/10/18 11:36:34;;;;;;;6.30;5.70;;;21.10;40.10;;;;;;4916255;29;20449;-52
2023/10/18 11:41:44;;;;;;;7.07;6.40;;;21.30;38.90;;;;;;4909973;29;20453;-46
2023/10/18 11:44:16;;;;;;;6.70;5.97;;;21.20;38.90;;;;;;4914207;29;20520;-49
2023/10/18 11:46:56;;;;;;;5.60;5.10;;;21.00;39.30;;;;;;4920095;29;20499;-50
2023/10/18 11:49:32;;;;;;;5.80;5.30;;;21.10;39.70;;;;;;4921098;29;20470;-50
2023/10/18 11:51:58;;;;;;;7.17;5.10;;;20.80;39.60;;;;;;4912389;29;20515;-49
2023/10/18 11:54:32;;;;;;;5.50;4.53;;;20.60;39.90;;;;;;4914477;29;20524;-50
2023/10/18 11:56:58;;;;;;;4.83;4.43;;;20.70;39.60;;;;;;4914919;29;20566;-51
2023/10/18 11:59:26;;;;;;;5.10;4.57;;;20.60;39.80;;;;;;4912625;29;20465;-49
2023/10/18 12:02:04;;;;;;;4.83;4.20;;;20.50;39.90;;;;;;4914310;29;20460;-48
2023/10/18 12:04:37;;;;;;;4.47;4.17;;;20.70;40.10;;;;;;4908323;29;20855;-49
2023/10/18 12:07:03;;;;;;;4.30;3.90;;;20.70;39.40;;;;;;4912237;29;20497;-52
2023/10/18 12:09:31;;;;;;;6.57;5.83;;;20.90;39.80;;;;;;4907588;29;20508;-49
2023/10/18 12:11:57;;;;;;;4.43;3.90;;;20.90;39.50;;;;;;4902524;29;20269;-54
2023/10/18 12:14:23;;;;;;;4.87;4.47;;;20.80;38.90;;;;;;4912171;29;20535;-48
2023/10/18 12:16:51;;;;;;;4.90;4.50;;;20.80;38.90;;;;;;4911975;29;20481;-50
2023/10/18 12:19:17;;;;;;;6.70;3.90;;;20.70;38.90;;;;;;4911822;29;20497;-52
2023/10/18 12:21:48;;;;;;;5.80;4.13;;;20.70;39.10;;;;;;4911616;29;20485;-51
2023/10/18 12:24:15;;;;;;;4.47;4.07;;;20.80;39.00;;;;;;4906512;29;20940;-51
2023/10/18 12:26:41;;;;;;;4.53;4.13;;;21.00;38.80;;;;;;4913305;29;20450;-48
2023/10/18 12:29:06;;;;;;;4.40;4.10;;;21.20;38.60;;;;;;4912026;29;20519;-52
2023/10/18 12:31:39;;;;;;;4.23;3.93;;;21.20;38.90;;;;;;4906843;29;20560;-52
2023/10/18 12:34:04;;;;;;;4.20;3.90;;;21.20;38.40;;;;;;4909947;29;20264;-50
2023/10/18 12:36:37;;;;;;;4.33;3.93;;;21.00;39.00;;;;;;4902686;29;20544;-49
2023/10/18 12:39:06;;;;;;;7.57;4.40;;;20.80;38.80;;;;;;4903798;29;20212;-53
2023/10/18 12:41:32;;;;;;;4.63;3.80;;;20.70;39.40;;;;;;4908043;29;20504;-50
2023/10/18 12:43:59;;;;;;;4.20;3.70;;;20.80;39.30;;;;;;4911962;29;20941;-49
2023/10/18 12:46:25;;;;;;;4.53;4.13;;;20.50;39.60;;;;;;4908801;29;20941;-50
2023/10/18 12:48:51;;;;;;;5.93;4.60;;;20.40;39.50;;;;;;4910194;29;20576;-54
2023/10/18 12:51:18;;;;;;;4.40;4.00;;;20.30;40.20;;;;;;4913965;29;20189;-51
2023/10/18 12:53:49;;;;;;;7.93;4.50;;;20.50;39.80;;;;;;4916446;29;20445;-48
2023/10/18 12:58:58;;;;;;;7.47;3.87;;;20.30;40.10;;;;;;4912139;29;20556;-53
2023/10/18 13:04:06;;;;;;;3.97;3.67;;;20.40;39.30;;;;;;4903089;29;20521;-49
2023/10/18 13:06:35;;;;;;;5.43;3.83;;;20.10;39.40;;;;;;4913501;29;20457;-50
2023/10/18 13:14:23;;;;;;;5.73;3.83;;;19.80;39.70;;;;;;4912767;29;20444;-52
2023/10/18 13:16:50;;;;;;;4.53;3.93;;;19.80;40.20;;;;;;4907618;29;20489;-52
2023/10/18 13:19:15;;;;;;;6.60;3.87;;;20.00;40.50;;;;;;4919353;29;20477;-51
2023/10/18 13:21:43;;;;;;;5.13;3.57;;;20.30;40.30;;;;;;4916422;29;20472;-52
2023/10/18 13:26:54;;;;;;;4.27;3.00;;;20.10;39.70;;;;;;4914401;29;20618;-52
2023/10/18 13:31:49;;;;;;;3.30;3.00;;;20.60;40.50;;;;;;4914717;29;20434;-51
2023/10/18 13:34:20;;;;;;;3.77;3.47;;;20.70;39.60;;;;;;4913712;29;20980;-51
2023/10/18 13:36:50;;;;;;;3.73;3.43;;;20.60;39.70;;;;;;4908799;29;20520;-49
2023/10/18 13:39:17;;;;;;;4.53;4.13;;;20.60;39.70;;;;;;4912358;29;20477;-47
2023/10/18 13:41:47;;;;;;;6.70;3.40;;;20.30;39.70;;;;;;4913517;29;20492;-49
2023/10/18 13:44:13;;;;;;;4.07;3.47;;;20.10;40.40;;;;;;4912799;29;20944;-50
2023/10/18 13:46:39;;;;;;;3.87;3.47;;;20.40;40.60;;;;;;4912599;29;20549;-50
2023/10/18 13:49:08;;;;;;;3.77;3.47;;;20.50;40.60;;;;;;4906718;29;20478;-48
2023/10/18 13:51:37;;;;;;;11.53;4.73;;;20.20;40.30;;;;;;4913502;29;20195;-48
2023/10/18 13:54:04;;;;;;;4.20;3.77;;;19.90;40.30;;;;;;4916013;29;20457;-49
2023/10/18 13:56:31;;;;;;;8.70;5.37;;;19.90;40.50;;;;;;4912137;29;20594;-49
2023/10/18 13:58:56;;;;;;;10.57;5.00;;;19.80;40.70;;;;;;4910610;29;21066;-52
2023/10/18 14:01:25;;;;;;;4.77;3.93;;;19.50;41.00;;;;;;4913098;29;20544;-48
2023/10/18 14:03:51;;;;;;;7.73;4.63;;;19.30;41.00;;;;;;4908182;29;20235;-49
2023/10/18 14:06:18;;;;;;;3.87;3.50;;;19.30;41.50;;;;;;4905149;29;20461;-49
2023/10/18 14:08:45;;;;;;;7.67;4.40;;;19.30;41.30;;;;;;4903573;29;20484;-47
2023/10/18 14:11:13;;;;;;;4.30;3.90;;;19.10;41.60;;;;;;4910551;29;20443;-48
2023/10/18 14:13:42;;;;;;;3.43;3.13;;;18.90;41.90;;;;;;4907881;29;20460;-52